Time;durP1;ratioP1;P1;durP2;ratioP2;P2;SDS_P1;SDS_P2;PMS_P1;PMS_P2;Temp;Humidity;BMP_temperature;BMP_pressure;BME280_temperature;BME280_humidity;BME280_pressure;Samples;Min_cycle;Max_cycle;Signal;HPM_P1;HPM_P2
2023/11/07 00:01:39;;;;;;;;;;;;;;;25.99;42.13;93984.81;4989599;28;7278;-90
2023/11/07 00:04:09;;;;;;;;;;;;;;;25.99;42.62;93982.06;5009059;28;7121;-90
2023/11/07 00:06:48;;;;;;;;;;;;;;;25.97;41.99;93972.81;5001641;28;9130;-90
2023/11/07 00:09:16;;;;;;;;;;;;;;;25.95;42.06;93976.13;5017963;28;7358;-90
2023/11/07 00:11:49;;;;;;;;;;;;;;;25.95;42.00;93967.84;5008462;28;7510;-90
2023/11/07 00:14:36;;;;;;;;;;;;;;;25.95;42.61;93973.34;4985527;28;7274;-90
2023/11/07 00:17:04;;;;;;;;;;;;;;;25.95;42.56;93978.88;4989586;28;8739;-90
2023/11/07 00:19:32;;;;;;;;;;;;;;;25.94;42.16;93971.88;4992158;28;7271;-90
2023/11/07 00:22:00;;;;;;;;;;;;;;;25.96;41.92;93974.09;4987304;28;7279;-89
2023/11/07 00:24:29;;;;;;;;;;;;;;;25.95;42.56;93970.59;4989194;28;7278;-90
2023/11/07 00:26:58;;;;;;;;;;;;;;;25.96;42.06;93976.88;4988816;28;8766;-90
2023/11/07 00:29:28;;;;;;;;;;;;;;;25.90;42.32;93963.16;5008797;28;7529;-90
2023/11/07 00:32:06;;;;;;;;;;;;;;;25.95;42.01;93970.59;4992332;28;8733;-92
2023/11/07 00:34:43;;;;;;;;;;;;;;;25.91;42.38;93958.41;4992174;28;7003;-91
2023/11/07 00:37:21;;;;;;;;;;;;;;;25.94;42.94;93963.63;4994528;28;8810;-91
2023/11/07 00:39:56;;;;;;;;;;;;;;;25.93;42.48;93964.88;4993696;28;8512;-92
2023/11/07 00:42:30;;;;;;;;;;;;;;;25.93;42.13;93972.38;4995977;28;7705;-92
2023/11/07 00:45:00;;;;;;;;;;;;;;;25.91;42.00;93972.16;4995607;28;8810;-91
2023/11/07 00:47:36;;;;;;;;;;;;;;;25.87;42.01;93950.44;4995378;28;8747;-92
2023/11/07 00:50:10;;;;;;;;;;;;;;;25.93;42.19;93964.88;5012469;28;7351;-91
2023/11/07 00:52:41;;;;;;;;;;;;;;;25.89;42.16;93961.69;5016500;28;9062;-91
2023/11/07 00:55:15;;;;;;;;;;;;;;;25.89;42.65;93963.69;4996249;28;7353;-93
2023/11/07 00:57:42;;;;;;;;;;;;;;;25.83;42.80;93960.28;4995982;28;7288;-91
2023/11/07 01:00:13;;;;;;;;;;;;;;;25.90;42.64;93968.66;4996407;28;7327;-91
2023/11/07 01:02:41;;;;;;;;;;;;;;;25.89;42.42;93963.69;4995704;28;7452;-92
2023/11/07 01:05:10;;;;;;;;;;;;;;;25.86;42.14;93962.00;4996303;28;9034;-91
2023/11/07 01:07:42;;;;;;;;;;;;;;;25.86;42.47;93964.75;5011342;28;7245;-92
2023/11/07 01:10:11;;;;;;;;;;;;;;;25.90;42.15;93976.22;5012441;28;8754;-92
2023/11/07 01:12:46;;;;;;;;;;;;;;;25.90;42.39;93965.19;5011900;28;7029;-91
2023/11/07 01:15:17;;;;;;;;;;;;;;;25.89;42.28;93969.94;4995484;28;7289;-92
2023/11/07 01:17:54;;;;;;;;;;;;;;;25.89;42.09;93964.44;4991731;28;9022;-91
2023/11/07 01:20:37;;;;;;;;;;;;;;;25.90;42.26;93960.41;4993063;28;7032;-91
2023/11/07 01:23:06;;;;;;;;;;;;;;;25.87;42.41;93960.72;4995903;28;6995;-91
2023/11/07 01:25:39;;;;;;;;;;;;;;;25.88;42.02;93957.44;4984893;28;8562;-91
2023/11/07 01:28:07;;;;;;;;;;;;;;;25.88;42.16;93967.72;5000897;28;7086;-91
2023/11/07 01:30:37;;;;;;;;;;;;;;;25.91;42.43;93978.44;4995773;28;8747;-92
2023/11/07 01:33:12;;;;;;;;;;;;;;;25.92;42.51;93973.69;4995129;28;7485;-91
2023/11/07 01:35:45;;;;;;;;;;;;;;;25.91;42.47;93978.44;4995962;28;7230;-91
2023/11/07 01:38:23;;;;;;;;;;;;;;;25.90;42.23;93971.41;4995419;28;9035;-92
2023/11/07 01:40:53;;;;;;;;;;;;;;;25.89;42.36;93977.47;5009953;28;8733;-91
2023/11/07 01:43:27;;;;;;;;;;;;;;;25.89;42.49;93975.47;4990103;28;7034;-86
2023/11/07 01:45:59;;;;;;;;;;;;;;;25.85;42.02;93968.75;4994357;28;8996;-86
2023/11/07 01:48:30;;;;;;;;;;;;;;;25.83;42.56;93960.28;4994168;28;7042;-87
2023/11/07 01:50:59;;;;;;;;;;;;;;;25.87;42.09;93969.72;4994727;28;7028;-87
2023/11/07 01:53:32;;;;;;;;;;;;;;;25.88;42.30;93979.47;4994670;28;8723;-87
2023/11/07 01:56:07;;;;;;;;;;;;;;;25.87;42.34;93972.47;4994285;28;9043;-87
2023/11/07 01:58:37;;;;;;;;;;;;;;;25.88;42.21;93981.50;4994358;28;7529;-88
2023/11/07 02:01:08;;;;;;;;;;;;;;;25.83;41.90;93980.31;4994472;28;8813;-87
2023/11/07 02:03:42;;;;;;;;;;;;;;;25.83;42.55;93971.28;5010801;28;7210;-86
2023/11/07 02:06:09;;;;;;;;;;;;;;;25.86;42.33;93982.00;4993891;28;8764;-86
2023/11/07 02:08:39;;;;;;;;;;;;;;;25.82;43.09;93987.06;5003561;28;7267;-87
2023/11/07 02:11:05;;;;;;;;;;;;;;;25.86;42.26;93981.28;4993854;28;6863;-87
2023/11/07 02:13:34;;;;;;;;;;;;;;;25.85;42.44;93980.53;4993693;28;7409;-87
2023/11/07 02:16:09;;;;;;;;;;;;;;;25.82;42.33;93980.81;4994841;28;8852;-87
2023/11/07 02:18:35;;;;;;;;;;;;;;;25.79;42.67;93981.88;5010103;28;7272;-86
2023/11/07 02:21:07;;;;;;;;;;;;;;;25.79;42.60;93984.63;4993843;28;8553;-86
2023/11/07 02:23:34;;;;;;;;;;;;;;;25.80;42.50;93975.09;5002832;28;7146;-88
2023/11/07 02:26:05;;;;;;;;;;;;;;;25.71;42.61;93978.97;4994215;28;9138;-88
2023/11/07 02:28:36;;;;;;;;;;;;;;;25.71;42.33;93976.19;5010198;28;8735;-87
2023/11/07 02:31:13;;;;;;;;;;;;;;;25.73;42.62;93983.97;4994282;28;7244;-86
2023/11/07 02:33:44;;;;;;;;;;;;;;;25.77;42.87;93982.41;5004580;28;8704;-86
2023/11/07 02:36:13;;;;;;;;;;;;;;;25.78;42.40;93978.38;4994307;28;8216;-86
2023/11/07 02:38:40;;;;;;;;;;;;;;;25.75;42.28;93982.16;4993399;28;7279;-86
2023/11/07 02:41:13;;;;;;;;;;;;;;;25.72;43.07;93977.69;4993279;28;7443;-89
2023/11/07 02:43:48;;;;;;;;;;;;;;;25.74;42.52;93980.69;4993856;28;9029;-87
2023/11/07 02:46:30;;;;;;;;;;;;;;;25.71;42.57;93967.22;4989952;28;9037;-87
2023/11/07 02:49:23;;;;;;;;;;;;;;;25.74;42.61;93977.19;4988656;28;6945;-87
2023/11/07 02:51:51;;;;;;;;;;;;;;;25.71;42.73;93981.00;4953992;28;8612;-86
2023/11/07 02:54:18;;;;;;;;;;;;;;;25.67;42.63;93980.50;4954714;28;8852;-86
2023/11/07 02:56:45;;;;;;;;;;;;;;;25.65;42.72;93983.06;4938544;28;8853;-86
2023/11/07 02:59:11;;;;;;;;;;;;;;;25.64;42.53;93976.06;4952106;28;6869;-88
2023/11/07 03:01:40;;;;;;;;;;;;;;;25.62;42.53;93984.84;4933989;29;7027;-86
2023/11/07 03:04:06;;;;;;;;;;;;;;;25.62;42.35;93986.88;4935810;28;7320;-88
2023/11/07 03:06:34;;;;;;;;;;;;;;;25.52;42.83;93971.94;4952087;28;8721;-87
2023/11/07 03:09:08;;;;;;;;;;;;;;;25.55;43.04;93982.69;4946542;28;8868;-86
2023/11/07 03:11:36;;;;;;;;;;;;;;;25.51;42.41;93967.72;4947978;28;7214;-86
2023/11/07 03:14:05;;;;;;;;;;;;;;;25.56;42.72;93981.41;4955559;28;7281;-88
2023/11/07 03:16:42;;;;;;;;;;;;;;;25.54;42.68;93986.69;4934787;28;6917;-87
2023/11/07 03:19:21;;;;;;;;;;;;;;;25.58;42.64;93987.13;4937281;28;8979;-87
2023/11/07 03:21:57;;;;;;;;;;;;;;;25.58;43.09;93984.38;4961948;28;9218;-86
2023/11/07 03:24:32;;;;;;;;;;;;;;;25.59;43.06;93974.13;4953724;28;7251;-87
2023/11/07 03:27:01;;;;;;;;;;;;;;;25.59;43.09;93988.63;4935034;28;7413;-86
2023/11/07 03:29:35;;;;;;;;;;;;;;;25.51;42.73;93978.75;4983861;28;6889;-86
2023/11/07 03:32:11;;;;;;;;;;;;;;;25.58;43.27;93989.16;4992804;28;9218;-87
2023/11/07 03:34:38;;;;;;;;;;;;;;;25.56;42.91;93986.16;5006523;28;6970;-86
2023/11/07 03:37:17;;;;;;;;;;;;;;;25.54;42.99;93994.22;5009528;28;8723;-86
2023/11/07 03:39:47;;;;;;;;;;;;;;;25.56;42.45;93992.44;5000058;28;6881;-86
2023/11/07 03:42:15;;;;;;;;;;;;;;;25.54;43.43;93992.19;4992863;28;6989;-86
2023/11/07 03:44:52;;;;;;;;;;;;;;;25.51;43.29;93984.25;4980426;28;8687;-86
2023/11/07 03:47:24;;;;;;;;;;;;;;;25.52;43.00;93986.47;5008900;28;9074;-86
2023/11/07 03:49:51;;;;;;;;;;;;;;;25.57;42.86;93993.19;4992361;28;8987;-86
2023/11/07 03:52:21;;;;;;;;;;;;;;;25.57;42.78;93995.94;4992648;28;7538;-87
2023/11/07 03:54:54;;;;;;;;;;;;;;;25.56;42.61;93989.66;4992793;28;7353;-86
2023/11/07 03:57:27;;;;;;;;;;;;;;;25.57;43.22;93987.66;4993107;28;7330;-86
2023/11/07 03:59:53;;;;;;;;;;;;;;;25.55;42.86;93996.47;4992614;28;7321;-89
2023/11/07 04:02:19;;;;;;;;;;;;;;;25.53;42.79;93996.25;4992966;28;6977;-93
2023/11/07 04:04:45;;;;;;;;;;;;;;;25.56;42.89;93997.19;4992451;28;9247;-92
2023/11/07 04:07:17;;;;;;;;;;;;;;;25.55;43.10;93999.22;4992816;28;8722;-93
2023/11/07 04:09:56;;;;;;;;;;;;;;;25.54;43.08;93997.72;5009399;28;7029;-94
2023/11/07 04:12:24;;;;;;;;;;;;;;;25.47;42.91;93983.81;4990848;28;6874;-93
2023/11/07 04:15:01;;;;;;;;;;;;;;;25.49;43.43;93986.78;5005494;28;6901;-93
2023/11/07 04:17:35;;;;;;;;;;;;;;;25.50;42.74;93994.50;4994422;28;7134;-93
2023/11/07 04:20:10;;;;;;;;;;;;;;;25.54;42.64;93996.97;4992132;28;6986;-93
2023/11/07 04:23:02;;;;;;;;;;;;;;;25.50;42.55;93993.75;4992314;28;8949;-94
2023/11/07 04:26:02;;;;;;;;;;;;;;;25.52;43.32;94005.75;4955852;28;8901;-94
2023/11/07 04:28:31;;;;;;;;;;;;;;;25.50;43.35;94011.03;4932450;29;7329;-94
2023/11/07 04:30:59;;;;;;;;;;;;;;;25.46;43.28;94010.59;4946574;28;9114;-94
2023/11/07 04:33:39;;;;;;;;;;;;;;;25.43;43.27;94009.59;4933053;29;7002;-93
2023/11/07 04:36:07;;;;;;;;;;;;;;;25.43;43.29;94000.59;4926702;29;7049;-93
2023/11/07 04:38:34;;;;;;;;;;;;;;;25.45;43.17;94006.31;4925671;29;7239;-93
2023/11/07 04:41:04;;;;;;;;;;;;;;;25.40;42.85;93996.84;4920817;29;8722;-93
2023/11/07 04:43:35;;;;;;;;;;;;;;;25.50;42.68;94015.78;4928246;29;7294;-93
2023/11/07 04:46:06;;;;;;;;;;;;;;;25.48;43.24;94010.06;4931981;29;8708;-93
2023/11/07 04:48:38;;;;;;;;;;;;;;;25.51;42.71;94011.78;4936644;29;9717;-93
2023/11/07 04:51:07;;;;;;;;;;;;;;;25.50;42.69;94015.78;4935476;29;8803;-93
2023/11/07 04:53:36;;;;;;;;;;;;;;;25.46;43.37;94009.84;4936007;29;9030;-93
2023/11/07 04:56:15;;;;;;;;;;;;;;;25.45;43.33;94000.81;4936188;29;8605;-92
2023/11/07 04:58:43;;;;;;;;;;;;;;;25.52;43.02;94013.25;4935633;29;9002;-93
2023/11/07 05:01:21;;;;;;;;;;;;;;;25.49;43.24;94009.53;4935721;29;8981;-94
2023/11/07 05:03:59;;;;;;;;;;;;;;;25.49;43.49;94015.03;4938369;28;9020;-93
2023/11/07 05:06:27;;;;;;;;;;;;;;;25.47;43.33;94012.06;4985706;28;8758;-93
2023/11/07 05:09:07;;;;;;;;;;;;;;;25.49;43.04;94009.53;4992472;28;7289;-93
2023/11/07 05:11:42;;;;;;;;;;;;;;;25.50;43.16;94024.81;4991983;28;9172;-90
2023/11/07 05:14:12;;;;;;;;;;;;;;;25.47;42.72;94012.06;4994220;28;9192;-90
2023/11/07 05:16:45;;;;;;;;;;;;;;;25.51;43.14;94017.28;4987193;28;7338;-91
2023/11/07 05:19:22;;;;;;;;;;;;;;;25.49;42.45;94023.28;4990804;28;9374;-90
2023/11/07 05:21:51;;;;;;;;;;;;;;;25.47;42.80;94008.59;4992158;28;8631;-89
2023/11/07 05:24:17;;;;;;;;;;;;;;;25.43;43.19;93995.09;4993078;28;8707;-91
2023/11/07 05:26:46;;;;;;;;;;;;;;;25.50;42.84;94010.28;4993799;28;7038;-90
2023/11/07 05:29:15;;;;;;;;;;;;;;;25.51;43.01;94011.78;4994965;28;7451;-90
2023/11/07 05:31:41;;;;;;;;;;;;;;;25.50;43.14;94011.03;5006044;28;7043;-91
2023/11/07 05:34:09;;;;;;;;;;;;;;;25.46;42.81;94013.34;4994205;28;8725;-91
2023/11/07 05:36:36;;;;;;;;;;;;;;;25.49;42.83;94012.28;4989520;28;9199;-90
2023/11/07 05:39:03;;;;;;;;;;;;;;;25.49;42.83;94009.53;5005177;28;8761;-90
2023/11/07 05:41:33;;;;;;;;;;;;;;;25.47;42.84;94003.06;4994200;28;8997;-90
2023/11/07 05:44:03;;;;;;;;;;;;;;;25.44;43.12;93996.59;4995016;28;7058;-90
2023/11/07 05:46:29;;;;;;;;;;;;;;;25.50;43.45;94008.28;4994356;28;6893;-91
2023/11/07 05:48:57;;;;;;;;;;;;;;;25.52;42.90;94007.75;4993885;28;7266;-91
2023/11/07 05:51:38;;;;;;;;;;;;;;;25.51;43.17;94009.78;4992389;28;8571;-91
2023/11/07 05:54:11;;;;;;;;;;;;;;;25.54;42.68;94011.47;4994252;28;7274;-91
2023/11/07 05:56:43;;;;;;;;;;;;;;;25.54;43.32;94002.47;5010047;28;7486;-91
2023/11/07 05:59:20;;;;;;;;;;;;;;;25.59;43.00;94013.44;4996401;28;9021;-91
2023/11/07 06:01:56;;;;;;;;;;;;;;;25.54;43.54;94000.47;4989256;28;7269;-91
2023/11/07 06:04:36;;;;;;;;;;;;;;;25.56;43.38;94016.47;4993006;28;6986;-90
2023/11/07 06:07:02;;;;;;;;;;;;;;;25.47;43.33;93997.56;4993726;28;8801;-90
2023/11/07 06:09:33;;;;;;;;;;;;;;;25.51;42.98;94004.28;4990561;28;8630;-90
2023/11/07 06:12:04;;;;;;;;;;;;;;;25.49;43.08;93998.50;4990379;28;6881;-90
2023/11/07 06:14:30;;;;;;;;;;;;;;;25.52;43.46;94010.50;5010144;28;8597;-90
2023/11/07 06:16:56;;;;;;;;;;;;;;;25.54;43.26;94000.47;4992522;28;7372;-91
2023/11/07 06:19:30;;;;;;;;;;;;;;;25.62;43.61;94009.63;5009611;28;8757;-89
2023/11/07 06:22:05;;;;;;;;;;;;;;;25.63;43.53;94010.38;4986311;28;10090;-92
2023/11/07 06:24:39;;;;;;;;;;;;;;;25.69;43.03;94013.78;4994065;28;8794;-90
2023/11/07 06:27:05;;;;;;;;;;;;;;;25.69;43.22;94016.53;5011806;28;7270;-90
2023/11/07 06:29:32;;;;;;;;;;;;;;;25.71;42.99;94023.03;4989621;28;7021;-91
2023/11/07 06:32:03;;;;;;;;;;;;;;;25.72;42.92;94021.03;4992718;28;8620;-89
2023/11/07 06:34:34;;;;;;;;;;;;;;;25.71;43.08;94017.53;5009346;28;9037;-90
2023/11/07 06:37:13;;;;;;;;;;;;;;;25.72;43.07;94018.28;5007104;28;8735;-90
2023/11/07 06:39:39;;;;;;;;;;;;;;;25.73;42.93;94031.50;5007347;28;9118;-89
2023/11/07 06:42:11;;;;;;;;;;;;;;;25.77;42.73;94034.00;4992926;28;7107;-90
2023/11/07 06:44:42;;;;;;;;;;;;;;;25.77;42.63;94040.25;4992002;28;8728;-89
2023/11/07 06:47:10;;;;;;;;;;;;;;;25.75;41.90;94039.28;4989337;28;7089;-90
2023/11/07 06:49:36;;;;;;;;;;;;;;;25.77;42.37;94054.03;4991433;28;9056;-91
2023/11/07 06:52:02;;;;;;;;;;;;;;;25.68;42.26;94053.63;4994070;28;7395;-90
2023/11/07 06:54:43;;;;;;;;;;;;;;;25.72;42.22;94052.06;4990313;28;8741;-89
2023/11/07 06:57:18;;;;;;;;;;;;;;;25.77;42.32;94051.28;4993163;28;8765;-90
2023/11/07 06:59:57;;;;;;;;;;;;;;;25.77;41.97;94056.78;4993322;28;9008;-90
2023/11/07 07:02:27;;;;;;;;;;;;;;;25.77;42.09;94051.28;4991343;28;7037;-89
2023/11/07 07:04:53;;;;;;;;;;;;;;;25.77;42.00;94050.53;4988814;28;7465;-89
2023/11/07 07:07:21;;;;;;;;;;;;;;;25.75;42.21;94050.31;4992643;28;7251;-90
2023/11/07 07:09:58;;;;;;;;;;;;;;;25.78;41.96;94052.75;4985789;28;9107;-89
2023/11/07 07:12:26;;;;;;;;;;;;;;;25.80;41.70;94055.72;5007739;28;9342;-88
2023/11/07 07:14:52;;;;;;;;;;;;;;;25.81;42.25;94057.22;4985095;28;8695;-91
2023/11/07 07:17:19;;;;;;;;;;;;;;;25.76;41.98;94049.00;5001558;28;7078;-91
2023/11/07 07:19:50;;;;;;;;;;;;;;;25.82;42.06;94060.69;4988636;28;9092;-90
2023/11/07 07:22:27;;;;;;;;;;;;;;;25.84;42.00;94060.94;4995404;28;7417;-90
2023/11/07 07:25:06;;;;;;;;;;;;;;;25.82;41.95;94061.47;4992461;28;7326;-91
2023/11/07 07:27:34;;;;;;;;;;;;;;;25.86;42.19;94077.72;4993603;28;9033;-89
2023/11/07 07:30:05;;;;;;;;;;;;;;;25.82;41.81;94066.97;5009008;28;8867;-90
2023/11/07 07:32:35;;;;;;;;;;;;;;;25.80;41.60;94060.47;5005644;28;7366;-93
2023/11/07 07:35:14;;;;;;;;;;;;;;;25.89;42.11;94073.91;4987230;28;8774;-93
2023/11/07 07:37:43;;;;;;;;;;;;;;;25.81;42.18;94059.22;5018194;28;7037;-92
2023/11/07 07:40:11;;;;;;;;;;;;;;;25.87;42.28;94071.66;4986165;28;9053;-92
2023/11/07 07:42:38;;;;;;;;;;;;;;;25.86;41.53;94070.16;5002088;28;9466;-93
2023/11/07 07:45:11;;;;;;;;;;;;;;;25.91;42.15;94082.38;5012946;28;8748;-93
2023/11/07 07:47:41;;;;;;;;;;;;;;;25.91;42.09;94087.91;4989872;28;9078;-92
2023/11/07 07:50:10;;;;;;;;;;;;;;;25.82;41.95;94072.47;5009805;28;9951;-94
2023/11/07 07:52:54;;;;;;;;;;;;;;;25.84;42.09;94086.47;4992867;28;8741;-92
2023/11/07 07:55:27;;;;;;;;;;;;;;;25.88;42.09;94088.97;5011493;28;7065;-93
2023/11/07 07:58:00;;;;;;;;;;;;;;;25.86;41.93;94086.69;5015599;28;7172;-92
2023/11/07 08:00:37;;;;;;;;;;;;;;;25.89;42.57;94095.94;4990347;28;7028;-93
2023/11/07 08:03:08;;;;;;;;;;;;;;;25.87;42.05;94088.22;4999486;28;7032;-91
2023/11/07 08:05:39;;;;;;;;;;;;;;;25.89;42.12;94093.94;4990365;28;9041;-93
2023/11/07 08:08:07;;;;;;;;;;;;;;;25.91;42.27;94093.41;5006334;28;9284;-92
2023/11/07 08:10:38;;;;;;;;;;;;;;;25.90;42.29;94108.47;4992919;28;7004;-92
2023/11/07 08:13:09;;;;;;;;;;;;;;;25.81;42.62;94095.03;4991002;28;9199;-92
2023/11/07 08:15:49;;;;;;;;;;;;;;;25.86;42.74;94100.47;5005163;28;9305;-93
2023/11/07 08:18:29;;;;;;;;;;;;;;;25.90;42.44;94100.19;4992230;28;9398;-93
2023/11/07 08:20:57;;;;;;;;;;;;;;;25.89;42.01;94102.19;4991301;28;8577;-92
2023/11/07 08:23:26;;;;;;;;;;;;;;;25.89;42.58;94095.94;4992033;28;7227;-93
2023/11/07 08:25:56;;;;;;;;;;;;;;;25.85;42.11;94089.97;4991090;28;8620;-92
2023/11/07 08:28:33;;;;;;;;;;;;;;;25.92;42.08;94101.19;4992023;28;9023;-92
2023/11/07 08:31:16;;;;;;;;;;;;;;;25.91;42.12;94102.44;4992648;28;7088;-92
2023/11/07 08:33:50;;;;;;;;;;;;;;;25.91;42.18;94110.69;4992033;28;7268;-91
2023/11/07 08:36:30;;;;;;;;;;;;;;;25.91;42.83;94109.94;4980931;28;8609;-93
2023/11/07 08:39:05;;;;;;;;;;;;;;;25.91;42.67;94109.94;4990611;28;8742;-92
2023/11/07 08:41:41;;;;;;;;;;;;;;;25.92;42.47;94114.94;5008330;28;7293;-88
2023/11/07 08:44:36;;;;;;;;;;;;;;;25.95;42.71;94110.38;4990741;28;8245;-87
2023/11/07 08:47:14;;;;;;;;;;;;;;;25.92;41.92;94097.66;4927162;29;7331;-88
2023/11/07 08:49:42;;;;;;;;;;;;;;;25.88;41.98;94113.75;4910645;29;8822;-87
2023/11/07 08:52:10;;;;;;;;;;;;;;;25.84;42.36;94118.78;4916874;29;7243;-87
2023/11/07 08:54:39;;;;;;;;;;;;;;;25.86;41.98;94114.25;4912763;29;7508;-87
2023/11/07 08:57:05;;;;;;;;;;;;;;;25.87;42.03;94113.00;4923442;29;7299;-86
2023/11/07 08:59:36;;;;;;;;;;;;;;;25.88;41.23;94125.50;4935818;29;8730;-88
2023/11/07 09:02:11;;;;;;;;;;;;;;;25.88;40.81;94114.47;4932154;29;9024;-87
2023/11/07 09:04:47;;;;;;;;;;;;;;;25.87;40.10;94115.00;4920674;29;9172;-87
2023/11/07 09:07:24;;;;;;;;;;;;;;;25.88;40.15;94117.22;4920824;29;9121;-88
2023/11/07 09:09:52;;;;;;;;;;;;;;;25.88;40.38;94125.50;4919733;29;9387;-88
2023/11/07 09:12:31;;;;;;;;;;;;;;;25.88;40.47;94122.75;4923451;29;7477;-92
2023/11/07 09:15:05;;;;;;;;;;;;;;;25.92;40.98;94130.72;4925554;29;9143;-87
2023/11/07 09:17:39;;;;;;;;;;;;;;;25.93;40.64;94134.97;4920555;29;9131;-87
2023/11/07 09:20:22;;;;;;;;;;;;;;;25.91;40.11;94127.22;4906738;29;8753;-87
2023/11/07 09:22:56;;;;;;;;;;;;;;;25.90;40.68;94136.75;4920053;28;8759;-87
2023/11/07 09:25:24;;;;;;;;;;;;;;;25.88;40.38;94131.00;5010953;28;7341;-89
2023/11/07 09:27:58;;;;;;;;;;;;;;;25.88;40.29;94127.53;5011048;28;7454;-88
2023/11/07 09:30:33;;;;;;;;;;;;;;;25.91;40.60;94127.22;4990552;28;8916;-87
2023/11/07 09:33:01;;;;;;;;;;;;;;;25.92;40.65;94128.72;5011352;28;8750;-87
2023/11/07 09:35:29;;;;;;;;;;;;;;;25.88;40.07;94117.22;5011067;28;7262;-87
2023/11/07 09:38:04;;;;;;;;;;;;;;;25.90;40.31;94134.00;4994927;28;7254;-87
2023/11/07 09:40:37;;;;;;;;;;;;;;;25.91;40.52;94127.22;4992975;28;6874;-87
2023/11/07 09:43:06;;;;;;;;;;;;;;;25.89;40.29;94129.75;4990719;28;7044;-88
2023/11/07 09:45:41;;;;;;;;;;;;;;;25.91;40.58;94132.75;4989109;28;9088;-87
2023/11/07 09:48:09;;;;;;;;;;;;;;;25.88;40.89;94122.75;5003698;28;7067;-90
2023/11/07 09:50:43;;;;;;;;;;;;;;;25.93;40.42;94134.97;4993678;28;8769;-88
2023/11/07 09:53:19;;;;;;;;;;;;;;;25.92;41.11;94125.22;4994129;28;8805;-87
2023/11/07 09:55:51;;;;;;;;;;;;;;;25.93;41.06;94124.69;4979427;28;7308;-88
2023/11/07 09:58:29;;;;;;;;;;;;;;;25.92;40.88;94127.97;4994972;28;8782;-88
2023/11/07 10:00:58;;;;;;;;;;;;;;;25.87;40.76;94107.50;4994093;28;8832;-87
2023/11/07 10:03:34;;;;;;;;;;;;;;;25.92;41.51;94120.47;5006925;28;7441;-87
2023/11/07 10:06:00;;;;;;;;;;;;;;;25.92;41.40;94111.44;5011817;28;8734;-88
2023/11/07 10:08:30;;;;;;;;;;;;;;;25.91;41.28;94109.94;5022267;28;9070;-89
2023/11/07 10:11:17;;;;;;;;;;;;;;;25.96;40.70;94123.66;4996199;28;7159;-90
2023/11/07 10:14:03;;;;;;;;;;;;;;;25.95;41.06;94118.66;5004011;28;9010;-87
2023/11/07 10:16:43;;;;;;;;;;;;;;;25.98;41.62;94128.66;4990583;28;8689;-87
2023/11/07 10:19:32;;;;;;;;;;;;;;;25.98;41.31;94125.91;5010360;28;6913;-88
2023/11/07 10:22:06;;;;;;;;;;;;;;;25.97;41.49;94127.91;5001110;28;8999;-87
2023/11/07 10:24:46;;;;;;;;;;;;;;;26.00;41.22;94121.34;4994172;28;8843;-88
2023/11/07 10:27:28;;;;;;;;;;;;;;;26.00;41.16;94123.38;5015418;28;8740;-88
2023/11/07 10:29:54;;;;;;;;;;;;;;;26.03;41.14;94123.06;4993504;28;7548;-87
2023/11/07 10:32:20;;;;;;;;;;;;;;;26.05;41.27;94119.81;4993436;28;8774;-87
2023/11/07 10:35:11;;;;;;;;;;;;;;;26.06;41.34;94115.75;4990748;28;8706;-87
2023/11/07 10:37:42;;;;;;;;;;;;;;;26.06;41.30;94115.75;5012267;28;6865;-92
2023/11/07 10:40:17;;;;;;;;;;;;;;;26.07;41.32;94117.28;5010727;28;10486;-90
2023/11/07 10:42:53;;;;;;;;;;;;;;;26.06;41.16;94111.00;4985930;28;8759;-89
2023/11/07 10:45:30;;;;;;;;;;;;;;;26.05;41.73;94108.78;4993096;28;7215;-89
2023/11/07 10:48:07;;;;;;;;;;;;;;;26.01;41.77;94100.06;5009899;28;8056;-88
2023/11/07 10:50:43;;;;;;;;;;;;;;;26.03;41.38;94101.00;4987947;28;8473;-89
2023/11/07 10:53:11;;;;;;;;;;;;;;;26.08;41.35;94107.72;4990220;28;9067;-88
2023/11/07 10:55:38;;;;;;;;;;;;;;;26.10;41.33;94096.94;4990531;28;9298;-87
2023/11/07 10:58:18;;;;;;;;;;;;;;;26.10;41.36;94094.94;5007359;28;7129;-88
2023/11/07 11:00:47;;;;;;;;;;;;;;;26.11;41.11;94095.69;5001244;28;9107;-90
2023/11/07 11:03:17;;;;;;;;;;;;;;;26.12;41.58;94097.91;4993844;28;7268;-90
2023/11/07 11:05:53;;;;;;;;;;;;;;;26.05;41.57;94083.97;4987337;28;9113;-90
2023/11/07 11:08:23;;;;;;;;;;;;;;;25.98;41.55;94079.81;4990565;28;9050;-90
2023/11/07 11:10:56;;;;;;;;;;;;;;;26.09;41.57;94093.47;4987775;28;8823;-90
2023/11/07 11:13:24;;;;;;;;;;;;;;;26.03;41.67;94075.47;4990789;28;8863;-90
2023/11/07 11:15:58;;;;;;;;;;;;;;;26.10;41.72;94083.16;5010170;28;8698;-90
2023/11/07 11:18:56;;;;;;;;;;;;;;;26.10;41.22;94089.44;5005646;28;9088;-90
2023/11/07 11:21:51;;;;;;;;;;;;;;;26.10;41.78;94088.69;4989556;28;9463;-89
2023/11/07 11:24:40;;;;;;;;;;;;;;;26.10;41.59;94086.66;4996674;28;7053;-89
2023/11/07 11:30:53;;;;;;;;;;;;;;;26.13;41.89;94080.13;4993363;28;9049;-90
2023/11/07 11:37:02;;;;;;;;;;;;;;;26.12;42.29;94070.34;5024289;22;6789;-62
2023/11/07 11:39:36;;;;;;;;;;;;;;;26.12;42.80;94070.34;5038283;28;8791;-62
2023/11/07 11:42:11;;;;;;;;;;;;;;;26.12;42.64;94069.63;5029967;28;7521;-62
2023/11/07 11:45:26;;;;;;;;;;;;;;;26.15;42.67;94066.56;5028788;28;7192;-62
2023/11/07 11:48:18;;;;;;;;;;;;;;;26.15;42.82;94069.31;4990591;28;7017;-62
2023/11/07 11:50:49;;;;;;;;;;;;;;;26.16;42.52;94067.31;4994676;28;8160;-62
2023/11/07 11:53:47;;;;;;;;;;;;;;;26.22;42.81;94079.00;4981068;28;8751;-62
2023/11/07 11:59:56;;;;;;;;;;;;;;;26.23;43.08;94080.47;4998764;28;7005;-62
2023/11/07 12:03:04;;;;;;;;;;;;;;;26.19;42.77;94085.56;5004841;28;7650;-63
2023/11/07 12:05:41;;;;;;;;;;;;;;;26.16;42.73;94081.09;4996569;28;7221;-64
2023/11/07 12:08:32;;;;;;;;;;;;;;;26.15;43.18;94080.34;4987770;28;7292;-62
2023/11/07 12:11:21;;;;;;;;;;;;;;;26.20;43.16;94078.03;4999703;28;8727;-62
2023/11/07 12:14:00;;;;;;;;;;;;;;;26.19;43.12;94073.81;4999596;28;7631;-67
2023/11/07 12:16:39;;;;;;;;;;;;;;;26.16;42.96;94070.06;5000841;28;6860;-67
2023/11/07 12:19:19;;;;;;;;;;;;;;;26.19;42.64;94069.00;4992890;28;7240;-68
2023/11/07 12:21:52;;;;;;;;;;;;;;;26.19;43.39;94066.25;5016395;28;6931;-67
2023/11/07 12:24:20;;;;;;;;;;;;;;;26.19;43.11;94068.28;5048699;28;7270;-67
2023/11/07 12:27:19;;;;;;;;;;;;;;;26.17;42.73;94075.06;5044326;28;9148;-67
2023/11/07 12:29:51;;;;;;;;;;;;;;;26.19;43.44;94074.53;5039190;28;7193;-66
2023/11/07 12:32:24;;;;;;;;;;;;;;;26.12;43.85;94075.16;5052020;28;7115;-67
2023/11/07 12:34:58;;;;;;;;;;;;;;;26.16;44.08;94067.31;5050433;28;7326;-66
2023/11/07 12:37:24;;;;;;;;;;;;;;;26.15;43.60;94063.81;5048680;28;7201;-67
2023/11/07 12:40:03;;;;;;;;;;;;;;;26.24;43.18;94070.19;5028747;28;7959;-68
2023/11/07 12:43:07;;;;;;;;;;;;;;;26.24;43.25;94070.19;5040445;28;9429;-68
2023/11/07 12:45:50;;;;;;;;;;;;;;;26.25;42.79;94072.47;4969943;28;9152;-67
2023/11/07 12:48:28;;;;;;;;;;;;;;;26.22;42.69;94067.22;4992853;28;7235;-66
2023/11/07 12:50:54;;;;;;;;;;;;;;;26.23;43.06;94069.44;4994858;28;7639;-66
2023/11/07 12:53:22;;;;;;;;;;;;;;;26.23;42.61;94074.25;4992091;28;8778;-66
2023/11/07 12:55:52;;;;;;;;;;;;;;;26.22;42.55;94072.75;4993812;28;7166;-66
2023/11/07 12:58:29;;;;;;;;;;;;;;;26.23;42.71;94068.72;4974519;28;7004;-67
2023/11/07 13:00:59;;;;;;;;;;;;;;;26.25;42.80;94063.44;4991714;28;7231;-67
2023/11/07 13:03:53;;;;;;;;;;;;;;;26.23;42.29;94071.50;4992791;28;8895;-66
2023/11/07 13:06:57;;;;;;;;;;;;;;;26.24;42.99;94059.94;4993381;28;7154;-66
2023/11/07 13:09:42;;;;;;;;;;;;;;;26.22;42.74;94061.72;4976391;28;7062;-66
2023/11/07 13:12:19;;;;;;;;;;;;;;;26.21;43.08;94066.47;4996774;28;8963;-66
2023/11/07 13:14:53;;;;;;;;;;;;;;;26.22;42.51;94067.22;4986261;28;7000;-66
2023/11/07 13:17:23;;;;;;;;;;;;;;;26.21;43.03;94074.03;4989388;28;7348;-66
2023/11/07 13:19:59;;;;;;;;;;;;;;;26.17;42.48;94072.31;4987169;28;7598;-66
2023/11/07 13:22:54;;;;;;;;;;;;;;;26.24;42.81;94079.22;5045441;28;9373;-59
2023/11/07 13:25:51;;;;;;;;;;;;;;;26.24;42.84;94084.00;5038194;28;7740;-59
2023/11/07 13:28:20;;;;;;;;;;;;;;;26.24;42.93;94084.75;4961615;28;7196;-59
2023/11/07 13:30:55;;;;;;;;;;;;;;;26.25;42.90;94083.50;4949090;28;9316;-59
2023/11/07 13:33:22;;;;;;;;;;;;;;;26.24;42.52;94086.75;4957915;28;7010;-59
2023/11/07 13:35:59;;;;;;;;;;;;;;;26.23;42.59;94079.75;4964370;28;7634;-59
2023/11/07 13:38:25;;;;;;;;;;;;;;;26.23;43.08;94086.00;4950118;28;9400;-59
2023/11/07 13:41:01;;;;;;;;;;;;;;;26.24;42.84;94090.25;4975327;28;7319;-59
2023/11/07 13:43:30;;;;;;;;;;;;;;;26.22;42.54;94084.53;4970084;28;8884;-60